sensor_id;sensor_type;location;lat;lon;timestamp;temperature;humidity
33492;DHT22;20010;51.488;7.232;2022-08-18T00:01:12;19.20;99.90
33492;DHT22;20010;51.488;7.232;2022-08-18T00:03:41;19.10;99.90
33492;DHT22;20010;51.488;7.232;2022-08-18T00:06:23;19.10;99.90
33492;DHT22;20010;51.488;7.232;2022-08-18T00:08:54;19.10;99.90
33492;DHT22;20010;51.488;7.232;2022-08-18T00:11:21;19.00;99.90
33492;DHT22;20010;51.488;7.232;2022-08-18T00:13:49;19.00;99.90
33492;DHT22;20010;51.488;7.232;2022-08-18T00:16:16;18.90;99.90
33492;DHT22;20010;51.488;7.232;2022-08-18T00:18:42;18.90;99.90
33492;DHT22;20010;51.488;7.232;2022-08-18T00:21:09;18.90;99.90
33492;DHT22;20010;51.488;7.232;2022-08-18T00:23:36;18.80;99.90
33492;DHT22;20010;51.488;7.232;2022-08-18T00:26:04;18.80;99.90
33492;DHT22;20010;51.488;7.232;2022-08-18T00:28:31;18.80;99.90
33492;DHT22;20010;51.488;7.232;2022-08-18T00:30:58;18.70;99.90
33492;DHT22;20010;51.488;7.232;2022-08-18T00:33:24;18.70;99.90
33492;DHT22;20010;51.488;7.232;2022-08-18T00:35:52;18.70;99.90
33492;DHT22;20010;51.488;7.232;2022-08-18T00:38:18;18.70;99.90
33492;DHT22;20010;51.488;7.232;2022-08-18T00:40:52;18.70;99.90
33492;DHT22;20010;51.488;7.232;2022-08-18T00:43:31;18.70;99.90
33492;DHT22;20010;51.488;7.232;2022-08-18T00:46:01;18.70;99.90
33492;DHT22;20010;51.488;7.232;2022-08-18T00:48:29;18.70;99.90
33492;DHT22;20010;51.488;7.232;2022-08-18T00:51:03;18.70;99.90
33492;DHT22;20010;51.488;7.232;2022-08-18T00:56:18;18.60;99.90
33492;DHT22;20010;51.488;7.232;2022-08-18T00:58:52;18.60;99.90
33492;DHT22;20010;51.488;7.232;2022-08-18T01:01:22;18.60;99.90
33492;DHT22;20010;51.488;7.232;2022-08-18T01:03:56;18.60;99.90
33492;DHT22;20010;51.488;7.232;2022-08-18T01:06:38;18.60;99.90
33492;DHT22;20010;51.488;7.232;2022-08-18T01:09:06;18.60;99.90
33492;DHT22;20010;51.488;7.232;2022-08-18T01:11:35;18.60;99.90
33492;DHT22;20010;51.488;7.232;2022-08-18T01:14:08;18.60;99.90
33492;DHT22;20010;51.488;7.232;2022-08-18T01:16:35;18.60;99.90
33492;DHT22;20010;51.488;7.232;2022-08-18T01:19:24;18.60;99.90
33492;DHT22;20010;51.488;7.232;2022-08-18T01:25:04;18.60;99.90
33492;DHT22;20010;51.488;7.232;2022-08-18T01:27:52;18.50;99.90
33492;DHT22;20010;51.488;7.232;2022-08-18T01:30:26;18.50;99.90
33492;DHT22;20010;51.488;7.232;2022-08-18T01:32:53;18.40;99.90
33492;DHT22;20010;51.488;7.232;2022-08-18T01:35:23;18.50;99.90
33492;DHT22;20010;51.488;7.232;2022-08-18T01:37:54;18.50;99.90
33492;DHT22;20010;51.488;7.232;2022-08-18T01:40:22;18.50;99.90
33492;DHT22;20010;51.488;7.232;2022-08-18T01:43:09;18.40;99.90
33492;DHT22;20010;51.488;7.232;2022-08-18T01:45:37;18.50;99.90
33492;DHT22;20010;51.488;7.232;2022-08-18T01:48:04;18.40;99.90
33492;DHT22;20010;51.488;7.232;2022-08-18T01:50:31;18.40;99.90
33492;DHT22;20010;51.488;7.232;2022-08-18T01:53:01;18.40;99.90
33492;DHT22;20010;51.488;7.232;2022-08-18T01:55:32;18.40;99.90
33492;DHT22;20010;51.488;7.232;2022-08-18T01:57:58;18.40;99.90
33492;DHT22;20010;51.488;7.232;2022-08-18T02:00:27;18.40;99.90
33492;DHT22;20010;51.488;7.232;2022-08-18T02:02:55;18.40;99.90
33492;DHT22;20010;51.488;7.232;2022-08-18T02:05:38;18.40;99.90
33492;DHT22;20010;51.488;7.232;2022-08-18T02:08:07;18.40;99.90
33492;DHT22;20010;51.488;7.232;2022-08-18T02:10:35;18.40;99.90
33492;DHT22;20010;51.488;7.232;2022-08-18T02:13:02;18.40;99.90
33492;DHT22;20010;51.488;7.232;2022-08-18T02:15:29;18.30;99.90
33492;DHT22;20010;51.488;7.232;2022-08-18T02:17:56;18.30;99.90
33492;DHT22;20010;51.488;7.232;2022-08-18T02:20:23;18.30;99.90
33492;DHT22;20010;51.488;7.232;2022-08-18T02:22:51;18.30;99.90
33492;DHT22;20010;51.488;7.232;2022-08-18T02:25:18;18.30;99.90
33492;DHT22;20010;51.488;7.232;2022-08-18T02:27:45;18.20;99.90
33492;DHT22;20010;51.488;7.232;2022-08-18T02:30:15;18.20;99.90
33492;DHT22;20010;51.488;7.232;2022-08-18T02:32:42;18.20;99.90
33492;DHT22;20010;51.488;7.232;2022-08-18T02:35:10;18.20;99.90
33492;DHT22;20010;51.488;7.232;2022-08-18T02:37:39;18.10;99.90
33492;DHT22;20010;51.488;7.232;2022-08-18T02:40:08;18.10;99.90
33492;DHT22;20010;51.488;7.232;2022-08-18T02:42:41;18.10;99.90
33492;DHT22;20010;51.488;7.232;2022-08-18T02:45:08;18.00;99.90
33492;DHT22;20010;51.488;7.232;2022-08-18T02:47:35;18.00;99.90
33492;DHT22;20010;51.488;7.232;2022-08-18T02:50:02;18.00;99.90
33492;DHT22;20010;51.488;7.232;2022-08-18T02:52:29;18.00;99.90
33492;DHT22;20010;51.488;7.232;2022-08-18T02:54:59;18.00;99.90
33492;DHT22;20010;51.488;7.232;2022-08-18T02:57:29;18.00;99.90
33492;DHT22;20010;51.488;7.232;2022-08-18T02:59:56;18.00;99.90
33492;DHT22;20010;51.488;7.232;2022-08-18T03:02:25;17.90;99.90
33492;DHT22;20010;51.488;7.232;2022-08-18T03:04:52;18.00;99.90
33492;DHT22;20010;51.488;7.232;2022-08-18T03:07:19;18.00;99.90
33492;DHT22;20010;51.488;7.232;2022-08-18T03:09:45;18.00;99.90
33492;DHT22;20010;51.488;7.232;2022-08-18T03:12:12;18.00;99.90
33492;DHT22;20010;51.488;7.232;2022-08-18T03:14:39;18.00;99.90
33492;DHT22;20010;51.488;7.232;2022-08-18T03:17:07;18.00;99.90
33492;DHT22;20010;51.488;7.232;2022-08-18T03:19:35;18.00;99.90
33492;DHT22;20010;51.488;7.232;2022-08-18T03:22:02;18.10;99.90
33492;DHT22;20010;51.488;7.232;2022-08-18T03:24:49;18.10;99.90
33492;DHT22;20010;51.488;7.232;2022-08-18T03:27:16;18.00;99.90
33492;DHT22;20010;51.488;7.232;2022-08-18T03:29:43;18.00;99.90
33492;DHT22;20010;51.488;7.232;2022-08-18T03:32:10;18.00;99.90
33492;DHT22;20010;51.488;7.232;2022-08-18T03:34:37;18.00;99.90
33492;DHT22;20010;51.488;7.232;2022-08-18T03:37:04;18.00;99.90
33492;DHT22;20010;51.488;7.232;2022-08-18T03:39:31;17.90;99.90
33492;DHT22;20010;51.488;7.232;2022-08-18T03:41:58;17.90;99.90
33492;DHT22;20010;51.488;7.232;2022-08-18T03:44:33;17.90;99.90
33492;DHT22;20010;51.488;7.232;2022-08-18T03:47:07;17.90;99.90
33492;DHT22;20010;51.488;7.232;2022-08-18T03:49:35;17.90;99.90
33492;DHT22;20010;51.488;7.232;2022-08-18T03:52:03;17.90;99.90
33492;DHT22;20010;51.488;7.232;2022-08-18T03:54:32;17.80;99.90
33492;DHT22;20010;51.488;7.232;2022-08-18T03:56:59;17.80;99.90
33492;DHT22;20010;51.488;7.232;2022-08-18T03:59:27;17.80;99.90
33492;DHT22;20010;51.488;7.232;2022-08-18T04:01:56;17.80;99.90
33492;DHT22;20010;51.488;7.232;2022-08-18T04:04:25;17.80;99.90
33492;DHT22;20010;51.488;7.232;2022-08-18T04:07:04;17.80;99.90
33492;DHT22;20010;51.488;7.232;2022-08-18T04:09:32;17.80;99.90
33492;DHT22;20010;51.488;7.232;2022-08-18T04:12:07;17.80;99.90
33492;DHT22;20010;51.488;7.232;2022-08-18T04:14:45;17.80;99.90
33492;DHT22;20010;51.488;7.232;2022-08-18T04:17:17;17.70;99.90
33492;DHT22;20010;51.488;7.232;2022-08-18T04:19:54;17.70;99.90
33492;DHT22;20010;51.488;7.232;2022-08-18T04:22:22;17.70;99.90
33492;DHT22;20010;51.488;7.232;2022-08-18T04:24:50;17.80;99.90
33492;DHT22;20010;51.488;7.232;2022-08-18T04:27:19;17.80;99.90
33492;DHT22;20010;51.488;7.232;2022-08-18T04:29:47;17.80;99.90
33492;DHT22;20010;51.488;7.232;2022-08-18T04:32:14;17.80;99.90
33492;DHT22;20010;51.488;7.232;2022-08-18T04:34:41;17.80;99.90
33492;DHT22;20010;51.488;7.232;2022-08-18T04:37:08;17.80;99.90
33492;DHT22;20010;51.488;7.232;2022-08-18T04:39:35;17.80;99.90
33492;DHT22;20010;51.488;7.232;2022-08-18T04:42:03;17.80;99.90
33492;DHT22;20010;51.488;7.232;2022-08-18T04:44:31;17.70;99.90
33492;DHT22;20010;51.488;7.232;2022-08-18T04:46:59;17.60;99.90
33492;DHT22;20010;51.488;7.232;2022-08-18T04:49:26;17.60;99.90
33492;DHT22;20010;51.488;7.232;2022-08-18T04:51:54;17.60;99.90
33492;DHT22;20010;51.488;7.232;2022-08-18T04:55:00;17.60;99.90
33492;DHT22;20010;51.488;7.232;2022-08-18T04:57:28;17.60;99.90
33492;DHT22;20010;51.488;7.232;2022-08-18T04:59:59;17.60;99.90
33492;DHT22;20010;51.488;7.232;2022-08-18T05:02:26;17.60;99.90
33492;DHT22;20010;51.488;7.232;2022-08-18T05:04:53;17.60;99.90
33492;DHT22;20010;51.488;7.232;2022-08-18T05:07:20;17.70;99.90
33492;DHT22;20010;51.488;7.232;2022-08-18T05:09:51;17.60;99.90
33492;DHT22;20010;51.488;7.232;2022-08-18T05:12:19;17.70;99.90
33492;DHT22;20010;51.488;7.232;2022-08-18T05:14:52;17.80;99.90
33492;DHT22;20010;51.488;7.232;2022-08-18T05:17:19;17.80;99.90
33492;DHT22;20010;51.488;7.232;2022-08-18T05:19:46;17.80;99.90
33492;DHT22;20010;51.488;7.232;2022-08-18T05:22:15;17.90;99.90
33492;DHT22;20010;51.488;7.232;2022-08-18T05:24:54;17.90;99.90
33492;DHT22;20010;51.488;7.232;2022-08-18T05:27:21;17.90;99.90
33492;DHT22;20010;51.488;7.232;2022-08-18T05:29:48;18.00;99.90
33492;DHT22;20010;51.488;7.232;2022-08-18T05:32:17;17.90;99.90
33492;DHT22;20010;51.488;7.232;2022-08-18T05:35:08;18.00;99.90
33492;DHT22;20010;51.488;7.232;2022-08-18T05:40:36;18.00;99.90
33492;DHT22;20010;51.488;7.232;2022-08-18T05:43:04;18.00;99.90
33492;DHT22;20010;51.488;7.232;2022-08-18T05:45:32;18.10;99.90
33492;DHT22;20010;51.488;7.232;2022-08-18T05:48:00;18.10;99.90
33492;DHT22;20010;51.488;7.232;2022-08-18T05:50:30;18.20;99.90
33492;DHT22;20010;51.488;7.232;2022-08-18T05:53:02;18.20;99.90
33492;DHT22;20010;51.488;7.232;2022-08-18T05:55:56;18.20;99.90
33492;DHT22;20010;51.488;7.232;2022-08-18T05:58:52;18.30;99.90
33492;DHT22;20010;51.488;7.232;2022-08-18T06:01:37;18.30;99.90
33492;DHT22;20010;51.488;7.232;2022-08-18T06:04:10;18.30;99.90
33492;DHT22;20010;51.488;7.232;2022-08-18T06:06:38;18.30;99.90
33492;DHT22;20010;51.488;7.232;2022-08-18T06:15:41;18.40;99.90
33492;DHT22;20010;51.488;7.232;2022-08-18T06:18:45;18.40;99.90
33492;DHT22;20010;51.488;7.232;2022-08-18T06:24:05;18.50;99.90
33492;DHT22;20010;51.488;7.232;2022-08-18T06:34:51;18.60;99.90
33492;DHT22;20010;51.488;7.232;2022-08-18T06:39:53;18.60;99.90
33492;DHT22;20010;51.488;7.232;2022-08-18T06:42:25;18.60;99.90
33492;DHT22;20010;51.488;7.232;2022-08-18T06:45:08;18.60;99.90
33492;DHT22;20010;51.488;7.232;2022-08-18T06:47:56;18.60;99.90
33492;DHT22;20010;51.488;7.232;2022-08-18T06:53:09;18.70;99.90
33492;DHT22;20010;51.488;7.232;2022-08-18T06:55:54;18.70;99.90
33492;DHT22;20010;51.488;7.232;2022-08-18T06:58:27;18.70;99.90
33492;DHT22;20010;51.488;7.232;2022-08-18T07:00:59;18.70;99.90
33492;DHT22;20010;51.488;7.232;2022-08-18T07:03:51;18.70;99.90
33492;DHT22;20010;51.488;7.232;2022-08-18T07:08:49;18.70;99.90
33492;DHT22;20010;51.488;7.232;2022-08-18T07:11:26;18.70;99.90
33492;DHT22;20010;51.488;7.232;2022-08-18T07:13:57;18.70;99.90
33492;DHT22;20010;51.488;7.232;2022-08-18T07:16:42;18.80;99.90
33492;DHT22;20010;51.488;7.232;2022-08-18T07:19:30;18.70;99.90
33492;DHT22;20010;51.488;7.232;2022-08-18T07:24:30;18.70;99.90
33492;DHT22;20010;51.488;7.232;2022-08-18T07:30:04;18.60;99.90
33492;DHT22;20010;51.488;7.232;2022-08-18T07:32:44;18.60;99.90
33492;DHT22;20010;51.488;7.232;2022-08-18T07:35:15;18.60;99.90
33492;DHT22;20010;51.488;7.232;2022-08-18T07:43:23;18.50;99.90
33492;DHT22;20010;51.488;7.232;2022-08-18T07:45:59;18.50;99.90
33492;DHT22;20010;51.488;7.232;2022-08-18T07:48:31;18.50;99.90
33492;DHT22;20010;51.488;7.232;2022-08-18T07:54:12;18.60;99.90
33492;DHT22;20010;51.488;7.232;2022-08-18T08:05:14;18.70;99.90
33492;DHT22;20010;51.488;7.232;2022-08-18T08:10:24;18.80;99.90
33492;DHT22;20010;51.488;7.232;2022-08-18T08:16:03;18.80;99.90
33492;DHT22;20010;51.488;7.232;2022-08-18T08:19:26;18.80;99.90
33492;DHT22;20010;51.488;7.232;2022-08-18T08:21:24;18.70;99.90
33492;DHT22;20010;51.488;7.232;2022-08-18T08:34:39;19.00;99.90
33492;DHT22;20010;51.488;7.232;2022-08-18T08:37:13;19.10;99.90
33492;DHT22;20010;51.488;7.232;2022-08-18T08:39:54;19.20;99.90
33492;DHT22;20010;51.488;7.232;2022-08-18T08:42:46;19.40;99.90
33492;DHT22;20010;51.488;7.232;2022-08-18T08:45:38;19.60;99.90
33492;DHT22;20010;51.488;7.232;2022-08-18T08:48:18;19.70;99.90
33492;DHT22;20010;51.488;7.232;2022-08-18T08:50:54;19.80;99.90
33492;DHT22;20010;51.488;7.232;2022-08-18T08:53:34;19.80;99.90
33492;DHT22;20010;51.488;7.232;2022-08-18T08:56:07;19.90;99.90
33492;DHT22;20010;51.488;7.232;2022-08-18T08:58:47;20.00;99.90
33492;DHT22;20010;51.488;7.232;2022-08-18T09:04:20;20.10;99.90
33492;DHT22;20010;51.488;7.232;2022-08-18T09:09:47;20.10;99.90
33492;DHT22;20010;51.488;7.232;2022-08-18T09:23:47;20.60;99.90
33492;DHT22;20010;51.488;7.232;2022-08-18T09:26:41;20.50;99.90
33492;DHT22;20010;51.488;7.232;2022-08-18T09:29:53;20.40;99.90
33492;DHT22;20010;51.488;7.232;2022-08-18T09:35:06;20.40;99.90
33492;DHT22;20010;51.488;7.232;2022-08-18T09:37:51;20.40;99.90
33492;DHT22;20010;51.488;7.232;2022-08-18T09:40:55;20.40;99.90
33492;DHT22;20010;51.488;7.232;2022-08-18T09:47:07;20.50;99.90
33492;DHT22;20010;51.488;7.232;2022-08-18T09:49:49;20.50;99.90
33492;DHT22;20010;51.488;7.232;2022-08-18T09:55:00;20.50;99.90
33492;DHT22;20010;51.488;7.232;2022-08-18T09:57:37;20.50;99.90
33492;DHT22;20010;51.488;7.232;2022-08-18T10:07:51;20.40;99.90
33492;DHT22;20010;51.488;7.232;2022-08-18T10:16:44;20.50;99.90
33492;DHT22;20010;51.488;7.232;2022-08-18T10:22:43;20.60;99.90
33492;DHT22;20010;51.488;7.232;2022-08-18T10:25:13;20.70;99.90
33492;DHT22;20010;51.488;7.232;2022-08-18T10:27:55;20.70;99.90
33492;DHT22;20010;51.488;7.232;2022-08-18T10:33:06;20.80;99.90
33492;DHT22;20010;51.488;7.232;2022-08-18T10:35:59;20.80;99.90
33492;DHT22;20010;51.488;7.232;2022-08-18T10:38:39;20.80;99.90
33492;DHT22;20010;51.488;7.232;2022-08-18T10:41:48;20.80;99.90
33492;DHT22;20010;51.488;7.232;2022-08-18T10:44:18;20.80;99.90
33492;DHT22;20010;51.488;7.232;2022-08-18T10:46:57;20.90;99.90
33492;DHT22;20010;51.488;7.232;2022-08-18T10:49:26;20.90;99.90
33492;DHT22;20010;51.488;7.232;2022-08-18T10:52:28;21.00;99.90
33492;DHT22;20010;51.488;7.232;2022-08-18T10:55:18;21.10;99.90
33492;DHT22;20010;51.488;7.232;2022-08-18T10:57:56;21.10;99.90
33492;DHT22;20010;51.488;7.232;2022-08-18T11:00:43;21.20;99.90
33492;DHT22;20010;51.488;7.232;2022-08-18T11:06:09;21.30;99.90
33492;DHT22;20010;51.488;7.232;2022-08-18T11:08:49;21.30;99.90
33492;DHT22;20010;51.488;7.232;2022-08-18T11:11:28;21.40;99.90
33492;DHT22;20010;51.488;7.232;2022-08-18T11:14:12;21.40;99.90
33492;DHT22;20010;51.488;7.232;2022-08-18T11:19:26;21.70;99.90
33492;DHT22;20010;51.488;7.232;2022-08-18T11:21:53;21.70;99.90
33492;DHT22;20010;51.488;7.232;2022-08-18T11:24:43;21.70;99.90
33492;DHT22;20010;51.488;7.232;2022-08-18T11:27:29;21.80;99.90
33492;DHT22;20010;51.488;7.232;2022-08-18T11:30:01;21.90;99.90
33492;DHT22;20010;51.488;7.232;2022-08-18T11:32:38;22.00;99.90
33492;DHT22;20010;51.488;7.232;2022-08-18T11:35:20;22.00;99.90
33492;DHT22;20010;51.488;7.232;2022-08-18T11:37:55;21.90;99.90
33492;DHT22;20010;51.488;7.232;2022-08-18T11:40:30;21.90;99.90
33492;DHT22;20010;51.488;7.232;2022-08-18T11:43:32;21.90;99.90
33492;DHT22;20010;51.488;7.232;2022-08-18T11:46:21;21.80;99.90
33492;DHT22;20010;51.488;7.232;2022-08-18T11:48:56;21.80;99.90
33492;DHT22;20010;51.488;7.232;2022-08-18T11:51:31;21.80;99.90
33492;DHT22;20010;51.488;7.232;2022-08-18T11:56:38;21.90;99.90
33492;DHT22;20010;51.488;7.232;2022-08-18T11:59:06;21.90;99.90
33492;DHT22;20010;51.488;7.232;2022-08-18T12:12:21;22.30;99.90
33492;DHT22;20010;51.488;7.232;2022-08-18T12:17:44;22.50;99.90
33492;DHT22;20010;51.488;7.232;2022-08-18T12:20:19;22.60;99.90
33492;DHT22;20010;51.488;7.232;2022-08-18T12:22:46;22.60;99.90
33492;DHT22;20010;51.488;7.232;2022-08-18T12:25:16;22.60;99.90
33492;DHT22;20010;51.488;7.232;2022-08-18T12:27:52;22.80;99.90
33492;DHT22;20010;51.488;7.232;2022-08-18T12:30:19;23.00;99.90
33492;DHT22;20010;51.488;7.232;2022-08-18T12:32:46;23.10;99.90
33492;DHT22;20010;51.488;7.232;2022-08-18T12:35:21;23.10;99.90
33492;DHT22;20010;51.488;7.232;2022-08-18T12:37:48;23.20;99.90
33492;DHT22;20010;51.488;7.232;2022-08-18T12:40:35;23.30;99.90
33492;DHT22;20010;51.488;7.232;2022-08-18T12:43:02;23.20;99.90
33492;DHT22;20010;51.488;7.232;2022-08-18T12:45:31;23.10;99.90
33492;DHT22;20010;51.488;7.232;2022-08-18T12:47:58;23.10;99.90
33492;DHT22;20010;51.488;7.232;2022-08-18T12:50:30;23.00;99.90
33492;DHT22;20010;51.488;7.232;2022-08-18T12:53:05;22.90;99.90
33492;DHT22;20010;51.488;7.232;2022-08-18T12:55:36;22.90;99.90
33492;DHT22;20010;51.488;7.232;2022-08-18T12:58:11;22.80;99.90
33492;DHT22;20010;51.488;7.232;2022-08-18T13:00:37;22.80;99.90
33492;DHT22;20010;51.488;7.232;2022-08-18T13:03:06;22.70;99.90
33492;DHT22;20010;51.488;7.232;2022-08-18T13:05:34;22.70;99.90
33492;DHT22;20010;51.488;7.232;2022-08-18T13:08:04;22.70;99.90
33492;DHT22;20010;51.488;7.232;2022-08-18T13:10:32;22.70;99.90
33492;DHT22;20010;51.488;7.232;2022-08-18T13:13:16;22.50;99.90
33492;DHT22;20010;51.488;7.232;2022-08-18T13:15:44;22.50;99.90
33492;DHT22;20010;51.488;7.232;2022-08-18T13:18:24;22.50;99.90
33492;DHT22;20010;51.488;7.232;2022-08-18T13:20:58;22.60;99.90
33492;DHT22;20010;51.488;7.232;2022-08-18T13:23:26;22.70;99.90
33492;DHT22;20010;51.488;7.232;2022-08-18T13:25:55;22.70;99.90
33492;DHT22;20010;51.488;7.232;2022-08-18T13:28:31;22.80;99.90
33492;DHT22;20010;51.488;7.232;2022-08-18T13:31:15;22.90;99.90
33492;DHT22;20010;51.488;7.232;2022-08-18T13:33:42;23.00;99.90
33492;DHT22;20010;51.488;7.232;2022-08-18T13:36:26;23.20;99.90
33492;DHT22;20010;51.488;7.232;2022-08-18T13:38:54;23.20;99.90
33492;DHT22;20010;51.488;7.232;2022-08-18T13:41:21;23.30;99.90
33492;DHT22;20010;51.488;7.232;2022-08-18T13:43:50;23.30;99.90
33492;DHT22;20010;51.488;7.232;2022-08-18T13:46:18;23.40;99.90
33492;DHT22;20010;51.488;7.232;2022-08-18T13:48:55;23.50;99.90
33492;DHT22;20010;51.488;7.232;2022-08-18T13:51:28;23.60;99.90
33492;DHT22;20010;51.488;7.232;2022-08-18T13:53:56;23.50;99.90
33492;DHT22;20010;51.488;7.232;2022-08-18T13:56:43;23.60;99.90
33492;DHT22;20010;51.488;7.232;2022-08-18T13:59:19;23.70;99.90
33492;DHT22;20010;51.488;7.232;2022-08-18T14:01:49;23.80;99.90
33492;DHT22;20010;51.488;7.232;2022-08-18T14:04:20;23.90;99.90
33492;DHT22;20010;51.488;7.232;2022-08-18T14:06:53;23.90;99.90
33492;DHT22;20010;51.488;7.232;2022-08-18T14:09:24;23.90;99.90
33492;DHT22;20010;51.488;7.232;2022-08-18T14:12:05;23.80;99.90
33492;DHT22;20010;51.488;7.232;2022-08-18T14:14:53;23.90;99.90
33492;DHT22;20010;51.488;7.232;2022-08-18T14:17:22;23.90;99.90
33492;DHT22;20010;51.488;7.232;2022-08-18T14:19:53;24.00;99.90
33492;DHT22;20010;51.488;7.232;2022-08-18T14:22:49;24.00;99.90
33492;DHT22;20010;51.488;7.232;2022-08-18T14:25:35;24.30;99.90
33492;DHT22;20010;51.488;7.232;2022-08-18T14:28:21;24.70;99.90
33492;DHT22;20010;51.488;7.232;2022-08-18T14:30:51;24.80;99.90
33492;DHT22;20010;51.488;7.232;2022-08-18T14:33:21;24.70;99.90
33492;DHT22;20010;51.488;7.232;2022-08-18T14:36:09;24.60;99.90
33492;DHT22;20010;51.488;7.232;2022-08-18T14:38:36;24.60;99.90
33492;DHT22;20010;51.488;7.232;2022-08-18T14:41:06;24.60;99.90
33492;DHT22;20010;51.488;7.232;2022-08-18T14:43:33;24.70;99.90
33492;DHT22;20010;51.488;7.232;2022-08-18T14:46:22;24.90;99.90
33492;DHT22;20010;51.488;7.232;2022-08-18T14:48:55;25.30;99.90
33492;DHT22;20010;51.488;7.232;2022-08-18T14:51:24;25.70;99.90
33492;DHT22;20010;51.488;7.232;2022-08-18T14:53:53;26.00;99.90
33492;DHT22;20010;51.488;7.232;2022-08-18T14:56:21;26.40;99.90
33492;DHT22;20010;51.488;7.232;2022-08-18T14:58:55;26.50;99.90
33492;DHT22;20010;51.488;7.232;2022-08-18T15:01:22;26.70;99.90
33492;DHT22;20010;51.488;7.232;2022-08-18T15:03:52;26.80;99.90
33492;DHT22;20010;51.488;7.232;2022-08-18T15:06:20;26.80;99.90
33492;DHT22;20010;51.488;7.232;2022-08-18T15:08:53;27.00;99.90
33492;DHT22;20010;51.488;7.232;2022-08-18T15:11:23;27.10;99.90
33492;DHT22;20010;51.488;7.232;2022-08-18T15:13:50;27.20;99.90
33492;DHT22;20010;51.488;7.232;2022-08-18T15:16:21;27.20;99.90
33492;DHT22;20010;51.488;7.232;2022-08-18T15:18:58;27.00;99.90
33492;DHT22;20010;51.488;7.232;2022-08-18T15:21:26;26.90;99.90
33492;DHT22;20010;51.488;7.232;2022-08-18T15:24:14;27.10;99.90
33492;DHT22;20010;51.488;7.232;2022-08-18T15:27:05;27.40;99.90
33492;DHT22;20010;51.488;7.232;2022-08-18T15:29:45;27.70;99.70
33492;DHT22;20010;51.488;7.232;2022-08-18T15:32:11;27.50;99.10
33492;DHT22;20010;51.488;7.232;2022-08-18T15:34:43;27.60;99.60
33492;DHT22;20010;51.488;7.232;2022-08-18T15:37:18;27.60;99.20
33492;DHT22;20010;51.488;7.232;2022-08-18T15:39:58;27.70;99.70
33492;DHT22;20010;51.488;7.232;2022-08-18T15:42:28;27.40;99.30
33492;DHT22;20010;51.488;7.232;2022-08-18T15:44:55;27.30;98.40
33492;DHT22;20010;51.488;7.232;2022-08-18T15:47:22;27.20;99.80
33492;DHT22;20010;51.488;7.232;2022-08-18T15:49:50;27.10;99.60
33492;DHT22;20010;51.488;7.232;2022-08-18T15:52:21;26.90;99.90
33492;DHT22;20010;51.488;7.232;2022-08-18T15:54:48;26.70;99.80
33492;DHT22;20010;51.488;7.232;2022-08-18T15:57:17;26.40;99.90
33492;DHT22;20010;51.488;7.232;2022-08-18T16:00:04;26.30;99.90
33492;DHT22;20010;51.488;7.232;2022-08-18T16:02:31;26.10;99.90
33492;DHT22;20010;51.488;7.232;2022-08-18T16:04:59;26.10;99.90
33492;DHT22;20010;51.488;7.232;2022-08-18T16:07:36;26.30;99.90
33492;DHT22;20010;51.488;7.232;2022-08-18T16:10:11;26.50;99.90
33492;DHT22;20010;51.488;7.232;2022-08-18T16:12:39;26.40;99.90
33492;DHT22;20010;51.488;7.232;2022-08-18T16:15:13;26.30;99.90
33492;DHT22;20010;51.488;7.232;2022-08-18T16:17:45;26.20;99.90
33492;DHT22;20010;51.488;7.232;2022-08-18T16:20:13;26.40;99.90
33492;DHT22;20010;51.488;7.232;2022-08-18T16:22:40;26.60;99.90
33492;DHT22;20010;51.488;7.232;2022-08-18T16:25:08;26.60;99.90
33492;DHT22;20010;51.488;7.232;2022-08-18T16:27:35;26.60;99.60
33492;DHT22;20010;51.488;7.232;2022-08-18T16:30:08;26.70;99.90
33492;DHT22;20010;51.488;7.232;2022-08-18T16:32:36;26.80;99.90
33492;DHT22;20010;51.488;7.232;2022-08-18T16:35:04;27.00;99.90
33492;DHT22;20010;51.488;7.232;2022-08-18T16:37:31;27.20;99.00
33492;DHT22;20010;51.488;7.232;2022-08-18T16:39:58;27.20;98.60
33492;DHT22;20010;51.488;7.232;2022-08-18T16:42:25;27.30;98.90
33492;DHT22;20010;51.488;7.232;2022-08-18T16:44:59;27.20;99.70
33492;DHT22;20010;51.488;7.232;2022-08-18T16:47:26;27.30;99.80
33492;DHT22;20010;51.488;7.232;2022-08-18T16:49:53;27.30;98.70
33492;DHT22;20010;51.488;7.232;2022-08-18T16:52:24;27.30;99.20
33492;DHT22;20010;51.488;7.232;2022-08-18T16:54:52;27.20;99.60
33492;DHT22;20010;51.488;7.232;2022-08-18T16:57:23;27.10;99.00
33492;DHT22;20010;51.488;7.232;2022-08-18T17:00:22;27.00;99.20
33492;DHT22;20010;51.488;7.232;2022-08-18T17:03:09;26.80;99.70
33492;DHT22;20010;51.488;7.232;2022-08-18T17:06:06;26.70;99.90
33492;DHT22;20010;51.488;7.232;2022-08-18T17:08:34;26.60;99.90
33492;DHT22;20010;51.488;7.232;2022-08-18T17:11:02;26.60;99.90
33492;DHT22;20010;51.488;7.232;2022-08-18T17:13:30;26.50;99.90
33492;DHT22;20010;51.488;7.232;2022-08-18T17:15:58;26.40;99.90
33492;DHT22;20010;51.488;7.232;2022-08-18T17:18:25;26.40;99.90
33492;DHT22;20010;51.488;7.232;2022-08-18T17:20:52;26.40;99.90
33492;DHT22;20010;51.488;7.232;2022-08-18T17:23:21;26.40;99.90
33492;DHT22;20010;51.488;7.232;2022-08-18T17:25:48;26.40;99.90
33492;DHT22;20010;51.488;7.232;2022-08-18T17:28:18;26.40;99.90
33492;DHT22;20010;51.488;7.232;2022-08-18T17:30:51;26.30;99.90
33492;DHT22;20010;51.488;7.232;2022-08-18T17:33:23;26.20;99.90
33492;DHT22;20010;51.488;7.232;2022-08-18T17:35:51;26.10;99.90
33492;DHT22;20010;51.488;7.232;2022-08-18T17:38:45;26.00;99.90
33492;DHT22;20010;51.488;7.232;2022-08-18T17:41:18;25.80;99.90
33492;DHT22;20010;51.488;7.232;2022-08-18T17:43:54;25.70;99.90
33492;DHT22;20010;51.488;7.232;2022-08-18T17:46:28;25.60;99.90
33492;DHT22;20010;51.488;7.232;2022-08-18T17:49:09;25.50;99.90
33492;DHT22;20010;51.488;7.232;2022-08-18T17:51:48;25.40;99.90
33492;DHT22;20010;51.488;7.232;2022-08-18T17:56:58;25.30;99.90
33492;DHT22;20010;51.488;7.232;2022-08-18T17:59:28;25.20;99.90
33492;DHT22;20010;51.488;7.232;2022-08-18T18:02:23;25.20;99.90
33492;DHT22;20010;51.488;7.232;2022-08-18T18:05:01;25.10;99.90
33492;DHT22;20010;51.488;7.232;2022-08-18T18:07:35;25.00;99.90
33492;DHT22;20010;51.488;7.232;2022-08-18T18:15:48;24.70;99.90
33492;DHT22;20010;51.488;7.232;2022-08-18T18:23:44;24.60;99.90
33492;DHT22;20010;51.488;7.232;2022-08-18T18:31:40;24.40;99.90
33492;DHT22;20010;51.488;7.232;2022-08-18T18:34:43;24.30;99.90
33492;DHT22;20010;51.488;7.232;2022-08-18T18:37:28;24.20;99.90
33492;DHT22;20010;51.488;7.232;2022-08-18T18:39:58;24.10;99.90
33492;DHT22;20010;51.488;7.232;2022-08-18T18:42:32;24.00;99.90
33492;DHT22;20010;51.488;7.232;2022-08-18T18:45:03;23.90;99.90
33492;DHT22;20010;51.488;7.232;2022-08-18T18:47:50;23.80;99.90
33492;DHT22;20010;51.488;7.232;2022-08-18T18:50:28;23.70;99.90